sensor_id;sensor_type;location;lat;lon;timestamp;pressure;altitude;pressure_sealevel;temperature
65316;BMP280;51920;53.952;10.292;2023-03-25T00:01:14;99453.81;;;8.93
65316;BMP280;51920;53.952;10.292;2023-03-25T00:03:42;99451.91;;;8.93
65316;BMP280;51920;53.952;10.292;2023-03-25T00:06:12;99441.03;;;9.04
65316;BMP280;51920;53.952;10.292;2023-03-25T00:08:39;99441.84;;;9.01
65316;BMP280;51920;53.952;10.292;2023-03-25T00:11:06;99440.63;;;9.05
65316;BMP280;51920;53.952;10.292;2023-03-25T00:13:34;99438.69;;;9.09
65316;BMP280;51920;53.952;10.292;2023-03-25T00:16:02;99436.38;;;9.04
65316;BMP280;51920;53.952;10.292;2023-03-25T00:18:30;99423.31;;;8.99
65316;BMP280;51920;53.952;10.292;2023-03-25T00:21:01;99425.72;;;8.90
65316;BMP280;51920;53.952;10.292;2023-03-25T00:23:30;99418.00;;;8.88
65316;BMP280;51920;53.952;10.292;2023-03-25T00:25:57;99426.81;;;8.93
65316;BMP280;51920;53.952;10.292;2023-03-25T00:28:31;99422.56;;;8.95
65316;BMP280;51920;53.952;10.292;2023-03-25T00:31:06;99419.50;;;8.97
65316;BMP280;51920;53.952;10.292;2023-03-25T00:33:34;99415.34;;;8.81
65316;BMP280;51920;53.952;10.292;2023-03-25T00:36:01;99415.00;;;8.72
65316;BMP280;51920;53.952;10.292;2023-03-25T00:38:32;99410.06;;;8.67
65316;BMP280;51920;53.952;10.292;2023-03-25T00:41:15;99414.31;;;8.68
65316;BMP280;51920;53.952;10.292;2023-03-25T00:43:44;99407.72;;;8.69
65316;BMP280;51920;53.952;10.292;2023-03-25T00:46:11;99411.91;;;8.77
65316;BMP280;51920;53.952;10.292;2023-03-25T00:48:38;99410.44;;;8.65
65316;BMP280;51920;53.952;10.292;2023-03-25T00:51:05;99406.59;;;8.66
65316;BMP280;51920;53.952;10.292;2023-03-25T00:53:36;99408.47;;;8.69
65316;BMP280;51920;53.952;10.292;2023-03-25T00:56:04;99406.50;;;8.81
65316;BMP280;51920;53.952;10.292;2023-03-25T00:58:31;99410.69;;;8.85
65316;BMP280;51920;53.952;10.292;2023-03-25T01:00:58;99409.59;;;8.79
65316;BMP280;51920;53.952;10.292;2023-03-25T01:03:25;99406.91;;;8.72
65316;BMP280;51920;53.952;10.292;2023-03-25T01:05:54;99396.94;;;8.69
65316;BMP280;51920;53.952;10.292;2023-03-25T01:08:21;99400.41;;;8.66
65316;BMP280;51920;53.952;10.292;2023-03-25T01:10:57;99395.00;;;8.66
65316;BMP280;51920;53.952;10.292;2023-03-25T01:13:24;99390.41;;;8.63
65316;BMP280;51920;53.952;10.292;2023-03-25T01:15:51;99387.72;;;8.63
65316;BMP280;51920;53.952;10.292;2023-03-25T01:18:18;99391.53;;;8.65
65316;BMP280;51920;53.952;10.292;2023-03-25T01:20:44;99387.59;;;8.81
65316;BMP280;51920;53.952;10.292;2023-03-25T01:23:11;99387.28;;;8.72
65316;BMP280;51920;53.952;10.292;2023-03-25T01:25:38;99381.84;;;8.75
65316;BMP280;51920;53.952;10.292;2023-03-25T01:28:05;99383.81;;;8.71
65316;BMP280;51920;53.952;10.292;2023-03-25T01:30:33;99385.66;;;8.81
65316;BMP280;51920;53.952;10.292;2023-03-25T01:33:00;99385.25;;;8.83
65316;BMP280;51920;53.952;10.292;2023-03-25T01:35:27;99384.72;;;9.02
65316;BMP280;51920;53.952;10.292;2023-03-25T01:37:54;99373.91;;;9.02
65316;BMP280;51920;53.952;10.292;2023-03-25T01:40:22;99376.59;;;9.06
65316;BMP280;51920;53.952;10.292;2023-03-25T01:42:50;99378.09;;;9.10
65316;BMP280;51920;53.952;10.292;2023-03-25T01:45:29;99375.41;;;9.10
65316;BMP280;51920;53.952;10.292;2023-03-25T01:48:10;99376.16;;;9.11
65316;BMP280;51920;53.952;10.292;2023-03-25T01:50:50;99371.91;;;9.10
65316;BMP280;51920;53.952;10.292;2023-03-25T01:53:18;99372.25;;;9.12
65316;BMP280;51920;53.952;10.292;2023-03-25T01:55:45;99374.22;;;9.11
65316;BMP280;51920;53.952;10.292;2023-03-25T01:58:16;99373.88;;;9.06
65316;BMP280;51920;53.952;10.292;2023-03-25T02:00:44;99362.34;;;9.02
65316;BMP280;51920;53.952;10.292;2023-03-25T02:03:14;99351.63;;;8.95
65316;BMP280;51920;53.952;10.292;2023-03-25T02:06:00;99352.50;;;8.81
65316;BMP280;51920;53.952;10.292;2023-03-25T02:08:32;99357.84;;;8.84
65316;BMP280;51920;53.952;10.292;2023-03-25T02:11:04;99354.78;;;8.82
65316;BMP280;51920;53.952;10.292;2023-03-25T02:13:34;99354.03;;;8.78
65316;BMP280;51920;53.952;10.292;2023-03-25T02:21:59;99352.75;;;8.97
65316;BMP280;51920;53.952;10.292;2023-03-25T02:42:24;99341.66;;;8.84
65316;BMP280;51920;53.952;10.292;2023-03-25T02:45:01;99336.66;;;8.83
65316;BMP280;51920;53.952;10.292;2023-03-25T02:47:33;99330.50;;;8.82
65316;BMP280;51920;53.952;10.292;2023-03-25T02:50:06;99329.41;;;8.73
65316;BMP280;51920;53.952;10.292;2023-03-25T02:52:41;99322.84;;;8.74
65316;BMP280;51920;53.952;10.292;2023-03-25T02:55:11;99321.72;;;8.71
65316;BMP280;51920;53.952;10.292;2023-03-25T02:57:43;99319.03;;;8.71
65316;BMP280;51920;53.952;10.292;2023-03-25T03:00:14;99313.66;;;8.67
65316;BMP280;51920;53.952;10.292;2023-03-25T03:02:47;99324.06;;;8.69
65316;BMP280;51920;53.952;10.292;2023-03-25T03:05:40;99306.25;;;8.75
65316;BMP280;51920;53.952;10.292;2023-03-25T03:11:26;99312.34;;;8.83
65316;BMP280;51920;53.952;10.292;2023-03-25T03:17:18;99313.88;;;8.91
65316;BMP280;51920;53.952;10.292;2023-03-25T03:23:07;99312.63;;;8.96
65316;BMP280;51920;53.952;10.292;2023-03-25T03:26:01;99313.81;;;8.95
65316;BMP280;51920;53.952;10.292;2023-03-25T03:31:13;99304.91;;;8.98
65316;BMP280;51920;53.952;10.292;2023-03-25T03:33:53;99309.09;;;9.02
65316;BMP280;51920;53.952;10.292;2023-03-25T03:36:31;99312.16;;;9.04
65316;BMP280;51920;53.952;10.292;2023-03-25T03:39:03;99308.00;;;9.00
65316;BMP280;51920;53.952;10.292;2023-03-25T03:41:35;99309.94;;;8.96
65316;BMP280;51920;53.952;10.292;2023-03-25T03:44:07;99314.63;;;8.92
65316;BMP280;51920;53.952;10.292;2023-03-25T03:46:46;99311.09;;;8.98
65316;BMP280;51920;53.952;10.292;2023-03-25T03:49:17;99315.69;;;8.98
65316;BMP280;51920;53.952;10.292;2023-03-25T03:51:51;99307.63;;;8.94
65316;BMP280;51920;53.952;10.292;2023-03-25T03:54:25;99315.31;;;8.99
65316;BMP280;51920;53.952;10.292;2023-03-25T03:56:57;99319.56;;;8.97
65316;BMP280;51920;53.952;10.292;2023-03-25T03:59:36;99324.66;;;8.91
65316;BMP280;51920;53.952;10.292;2023-03-25T04:02:12;99319.56;;;8.97
65316;BMP280;51920;53.952;10.292;2023-03-25T04:04:42;99325.25;;;9.06
65316;BMP280;51920;53.952;10.292;2023-03-25T04:07:15;99323.31;;;9.06
65316;BMP280;51920;53.952;10.292;2023-03-25T04:10:18;99320.22;;;9.11
65316;BMP280;51920;53.952;10.292;2023-03-25T04:12:50;99308.75;;;9.00
65316;BMP280;51920;53.952;10.292;2023-03-25T04:15:18;99316.50;;;8.95
65316;BMP280;51920;53.952;10.292;2023-03-25T04:17:45;99317.72;;;8.90
65316;BMP280;51920;53.952;10.292;2023-03-25T04:20:15;99320.03;;;8.88
65316;BMP280;51920;53.952;10.292;2023-03-25T04:22:44;99317.66;;;8.94
65316;BMP280;51920;53.952;10.292;2023-03-25T04:25:12;99316.50;;;8.95
65316;BMP280;51920;53.952;10.292;2023-03-25T04:27:39;99306.16;;;8.89
65316;BMP280;51920;53.952;10.292;2023-03-25T04:30:07;99319.25;;;8.91
65316;BMP280;51920;53.952;10.292;2023-03-25T04:32:34;99312.34;;;8.83
65316;BMP280;51920;53.952;10.292;2023-03-25T04:35:00;99322.34;;;8.89
65316;BMP280;51920;53.952;10.292;2023-03-25T04:37:28;99323.81;;;8.94
65316;BMP280;51920;53.952;10.292;2023-03-25T04:39:54;99325.84;;;8.83
65316;BMP280;51920;53.952;10.292;2023-03-25T04:42:25;99327.69;;;8.97
65316;BMP280;51920;53.952;10.292;2023-03-25T04:44:58;99316.19;;;8.85
65316;BMP280;51920;53.952;10.292;2023-03-25T04:47:25;99316.13;;;8.93
65316;BMP280;51920;53.952;10.292;2023-03-25T04:49:51;99318.84;;;8.89
65316;BMP280;51920;53.952;10.292;2023-03-25T04:52:18;99319.28;;;8.87
65316;BMP280;51920;53.952;10.292;2023-03-25T04:54:44;99308.09;;;8.82
65316;BMP280;51920;53.952;10.292;2023-03-25T04:57:12;99327.34;;;8.91
65316;BMP280;51920;53.952;10.292;2023-03-25T04:59:38;99323.56;;;8.81
65316;BMP280;51920;53.952;10.292;2023-03-25T05:02:05;99321.16;;;8.90
65316;BMP280;51920;53.952;10.292;2023-03-25T05:04:32;99323.97;;;8.80
65316;BMP280;51920;53.952;10.292;2023-03-25T05:06:59;99330.16;;;8.73
65316;BMP280;51920;53.952;10.292;2023-03-25T05:09:26;99320.63;;;8.65
65316;BMP280;51920;53.952;10.292;2023-03-25T05:11:52;99325.69;;;8.59
65316;BMP280;51920;53.952;10.292;2023-03-25T05:14:20;99338.00;;;8.60
65316;BMP280;51920;53.952;10.292;2023-03-25T05:16:47;99333.41;;;8.57
65316;BMP280;51920;53.952;10.292;2023-03-25T05:19:15;99328.06;;;8.46
65316;BMP280;51920;53.952;10.292;2023-03-25T05:21:44;99337.31;;;8.49
65316;BMP280;51920;53.952;10.292;2023-03-25T05:24:11;99344.22;;;8.50
65316;BMP280;51920;53.952;10.292;2023-03-25T05:26:40;99341.22;;;8.37
65316;BMP280;51920;53.952;10.292;2023-03-25T05:29:10;99348.59;;;8.33
65316;BMP280;51920;53.952;10.292;2023-03-25T05:31:40;99344.84;;;8.13
65316;BMP280;51920;53.952;10.292;2023-03-25T05:34:07;99346.44;;;8.06
65316;BMP280;51920;53.952;10.292;2023-03-25T05:36:34;99342.28;;;7.80
65316;BMP280;51920;53.952;10.292;2023-03-25T05:39:02;99339.25;;;7.71
65316;BMP280;51920;53.952;10.292;2023-03-25T05:41:30;99345.78;;;7.74
65316;BMP280;51920;53.952;10.292;2023-03-25T05:44:08;99355.44;;;7.71
65316;BMP280;51920;53.952;10.292;2023-03-25T05:46:35;99352.38;;;7.62
65316;BMP280;51920;53.952;10.292;2023-03-25T05:49:02;99354.69;;;7.56
65316;BMP280;51920;53.952;10.292;2023-03-25T05:51:31;99348.53;;;7.56
65316;BMP280;51920;53.952;10.292;2023-03-25T05:53:59;99357.78;;;7.58
65316;BMP280;51920;53.952;10.292;2023-03-25T05:56:27;99362.00;;;7.59
65316;BMP280;51920;53.952;10.292;2023-03-25T05:58:54;99359.66;;;7.65
65316;BMP280;51920;53.952;10.292;2023-03-25T06:01:22;99359.69;;;7.68
65316;BMP280;51920;53.952;10.292;2023-03-25T06:03:57;99367.75;;;7.68
65316;BMP280;51920;53.952;10.292;2023-03-25T06:06:26;99367.75;;;7.68
65316;BMP280;51920;53.952;10.292;2023-03-25T06:08:52;99363.91;;;7.66
65316;BMP280;51920;53.952;10.292;2023-03-25T06:11:21;99363.13;;;7.65
65316;BMP280;51920;53.952;10.292;2023-03-25T06:13:47;99357.41;;;7.63
65316;BMP280;51920;53.952;10.292;2023-03-25T06:16:19;99380.81;;;7.70
65316;BMP280;51920;53.952;10.292;2023-03-25T06:18:48;99367.38;;;7.59
65316;BMP280;51920;53.952;10.292;2023-03-25T06:21:19;99374.69;;;7.55
65316;BMP280;51920;53.952;10.292;2023-03-25T06:23:46;99378.53;;;7.54
65316;BMP280;51920;53.952;10.292;2023-03-25T06:26:16;99379.34;;;7.55
65316;BMP280;51920;53.952;10.292;2023-03-25T06:28:43;99369.31;;;7.55
65316;BMP280;51920;53.952;10.292;2023-03-25T06:31:17;99382.41;;;7.57
65316;BMP280;51920;53.952;10.292;2023-03-25T06:33:45;99379.72;;;7.57
65316;BMP280;51920;53.952;10.292;2023-03-25T06:36:14;99376.25;;;7.63
65316;BMP280;51920;53.952;10.292;2023-03-25T06:38:44;99379.31;;;7.65
65316;BMP280;51920;53.952;10.292;2023-03-25T06:41:13;99376.59;;;7.65
65316;BMP280;51920;53.952;10.292;2023-03-25T06:43:41;99382.41;;;7.60
65316;BMP280;51920;53.952;10.292;2023-03-25T06:46:07;99379.34;;;7.58
65316;BMP280;51920;53.952;10.292;2023-03-25T06:48:57;99368.16;;;7.56
65316;BMP280;51920;53.952;10.292;2023-03-25T06:51:24;99376.59;;;7.69
65316;BMP280;51920;53.952;10.292;2023-03-25T06:53:50;99371.19;;;7.80
65316;BMP280;51920;53.952;10.292;2023-03-25T06:56:17;99373.16;;;7.72
65316;BMP280;51920;53.952;10.292;2023-03-25T06:58:46;99366.63;;;7.62
65316;BMP280;51920;53.952;10.292;2023-03-25T07:01:12;99358.50;;;7.73
65316;BMP280;51920;53.952;10.292;2023-03-25T07:03:39;99359.25;;;7.74
65316;BMP280;51920;53.952;10.292;2023-03-25T07:06:06;99370.78;;;7.85
65316;BMP280;51920;53.952;10.292;2023-03-25T07:08:33;99363.50;;;7.75
65316;BMP280;51920;53.952;10.292;2023-03-25T07:11:05;99374.25;;;7.82
65316;BMP280;51920;53.952;10.292;2023-03-25T07:13:33;99368.44;;;7.87
65316;BMP280;51920;53.952;10.292;2023-03-25T07:15:59;99365.03;;;7.83
65316;BMP280;51920;53.952;10.292;2023-03-25T07:18:26;99366.16;;;7.85
65316;BMP280;51920;53.952;10.292;2023-03-25T07:20:53;99369.94;;;8.02
65316;BMP280;51920;53.952;10.292;2023-03-25T07:23:19;99358.31;;;8.13
65316;BMP280;51920;53.952;10.292;2023-03-25T07:25:46;99361.41;;;8.15
65316;BMP280;51920;53.952;10.292;2023-03-25T07:28:13;99373.63;;;8.30
65316;BMP280;51920;53.952;10.292;2023-03-25T07:30:44;99368.16;;;8.44
65316;BMP280;51920;53.952;10.292;2023-03-25T07:33:11;99371.19;;;8.61
65316;BMP280;51920;53.952;10.292;2023-03-25T07:35:37;99363.47;;;8.56
65316;BMP280;51920;53.952;10.292;2023-03-25T07:38:04;99376.53;;;8.64
65316;BMP280;51920;53.952;10.292;2023-03-25T07:40:30;99370.25;;;8.78
65316;BMP280;51920;53.952;10.292;2023-03-25T07:42:57;99377.09;;;8.90
65316;BMP280;51920;53.952;10.292;2023-03-25T07:45:34;99370.94;;;8.89
65316;BMP280;51920;53.952;10.292;2023-03-25T07:48:01;99375.91;;;8.95
65316;BMP280;51920;53.952;10.292;2023-03-25T07:50:28;99374.66;;;9.03
65316;BMP280;51920;53.952;10.292;2023-03-25T07:52:54;99359.22;;;9.07
65316;BMP280;51920;53.952;10.292;2023-03-25T07:55:21;99371.06;;;9.20
65316;BMP280;51920;53.952;10.292;2023-03-25T07:57:48;99372.88;;;9.30
65316;BMP280;51920;53.952;10.292;2023-03-25T08:00:14;99375.06;;;9.43
65316;BMP280;51920;53.952;10.292;2023-03-25T08:02:41;99374.34;;;9.39
65316;BMP280;51920;53.952;10.292;2023-03-25T08:05:07;99369.72;;;9.39
65316;BMP280;51920;53.952;10.292;2023-03-25T08:07:34;99366.38;;;9.24
65316;BMP280;51920;53.952;10.292;2023-03-25T08:10:01;99364.06;;;9.26
65316;BMP280;51920;53.952;10.292;2023-03-25T08:12:27;99371.66;;;9.35
65316;BMP280;51920;53.952;10.292;2023-03-25T08:14:54;99346.00;;;9.20
65316;BMP280;51920;53.952;10.292;2023-03-25T08:17:21;99371.16;;;9.47
65316;BMP280;51920;53.952;10.292;2023-03-25T08:19:48;99368.09;;;9.45
65316;BMP280;51920;53.952;10.292;2023-03-25T08:22:15;99375.00;;;9.50
65316;BMP280;51920;53.952;10.292;2023-03-25T08:24:41;99375.63;;;9.61
65316;BMP280;51920;53.952;10.292;2023-03-25T08:27:08;99376.31;;;9.72
65316;BMP280;51920;53.952;10.292;2023-03-25T08:29:34;99381.78;;;9.96
65316;BMP280;51920;53.952;10.292;2023-03-25T08:32:01;99379.81;;;10.00
65316;BMP280;51920;53.952;10.292;2023-03-25T08:34:28;99385.91;;;10.04
65316;BMP280;51920;53.952;10.292;2023-03-25T08:36:55;99377.22;;;10.20
65316;BMP280;51920;53.952;10.292;2023-03-25T08:39:21;99374.63;;;10.40
65316;BMP280;51920;53.952;10.292;2023-03-25T08:41:55;99374.72;;;10.60
65316;BMP280;51920;53.952;10.292;2023-03-25T08:44:24;99384.31;;;10.65
65316;BMP280;51920;53.952;10.292;2023-03-25T08:46:51;99369.22;;;10.64
65316;BMP280;51920;53.952;10.292;2023-03-25T08:49:17;99381.03;;;10.77
65316;BMP280;51920;53.952;10.292;2023-03-25T08:51:44;99376.50;;;11.14
65316;BMP280;51920;53.952;10.292;2023-03-25T08:54:10;99375.19;;;10.78
65316;BMP280;51920;53.952;10.292;2023-03-25T08:56:37;99369.75;;;10.55
65316;BMP280;51920;53.952;10.292;2023-03-25T08:59:04;99363.84;;;10.09
65316;BMP280;51920;53.952;10.292;2023-03-25T09:01:31;99366.28;;;10.00
65316;BMP280;51920;53.952;10.292;2023-03-25T09:03:58;99371.25;;;10.05
65316;BMP280;51920;53.952;10.292;2023-03-25T09:06:24;99356.91;;;10.08
65316;BMP280;51920;53.952;10.292;2023-03-25T09:08:51;99348.53;;;10.26
65316;BMP280;51920;53.952;10.292;2023-03-25T09:11:17;99369.59;;;10.66
65316;BMP280;51920;53.952;10.292;2023-03-25T09:13:49;99358.88;;;10.59
65316;BMP280;51920;53.952;10.292;2023-03-25T09:16:16;99363.53;;;10.82
65316;BMP280;51920;53.952;10.292;2023-03-25T09:18:42;99385.78;;;10.93
65316;BMP280;51920;53.952;10.292;2023-03-25T09:21:09;99392.56;;;10.81
65316;BMP280;51920;53.952;10.292;2023-03-25T09:23:36;99392.09;;;10.86
65316;BMP280;51920;53.952;10.292;2023-03-25T09:26:02;99386.91;;;10.72
65316;BMP280;51920;53.952;10.292;2023-03-25T09:28:30;99401.97;;;10.73
65316;BMP280;51920;53.952;10.292;2023-03-25T09:30:57;99386.19;;;11.15
65316;BMP280;51920;53.952;10.292;2023-03-25T09:33:24;99378.16;;;11.71
65316;BMP280;51920;53.952;10.292;2023-03-25T09:35:52;99378.50;;;12.26
65316;BMP280;51920;53.952;10.292;2023-03-25T09:38:19;99387.78;;;12.45
65316;BMP280;51920;53.952;10.292;2023-03-25T09:40:46;99393.53;;;12.63
65316;BMP280;51920;53.952;10.292;2023-03-25T09:45:50;99391.53;;;12.51
65316;BMP280;51920;53.952;10.292;2023-03-25T09:50:55;99394.50;;;12.04
65316;BMP280;51920;53.952;10.292;2023-03-25T09:56:21;99385.75;;;11.96
65316;BMP280;51920;53.952;10.292;2023-03-25T09:59:03;99385.94;;;11.49
65316;BMP280;51920;53.952;10.292;2023-03-25T10:04:08;99384.75;;;11.30
65316;BMP280;51920;53.952;10.292;2023-03-25T10:09:34;99392.88;;;11.30
65316;BMP280;51920;53.952;10.292;2023-03-25T10:12:16;99387.47;;;11.07
65316;BMP280;51920;53.952;10.292;2023-03-25T10:17:41;99377.78;;;10.86
65316;BMP280;51920;53.952;10.292;2023-03-25T10:20:17;99385.78;;;10.93
65316;BMP280;51920;53.952;10.292;2023-03-25T10:23:02;99381.84;;;10.74
65316;BMP280;51920;53.952;10.292;2023-03-25T10:25:35;99386.84;;;10.75
65316;BMP280;51920;53.952;10.292;2023-03-25T10:28:04;99387.03;;;10.65
65316;BMP280;51920;53.952;10.292;2023-03-25T10:30:42;99403.00;;;10.83
65316;BMP280;51920;53.952;10.292;2023-03-25T10:33:34;99379.22;;;10.70
65316;BMP280;51920;53.952;10.292;2023-03-25T10:36:02;99390.09;;;10.67
65316;BMP280;51920;53.952;10.292;2023-03-25T10:38:31;99387.66;;;10.49
65316;BMP280;51920;53.952;10.292;2023-03-25T10:43:49;99394.59;;;10.50
65316;BMP280;51920;53.952;10.292;2023-03-25T10:46:17;99390.81;;;10.71
65316;BMP280;51920;53.952;10.292;2023-03-25T10:48:45;99405.38;;;10.53
65316;BMP280;51920;53.952;10.292;2023-03-25T10:51:16;99392.91;;;10.60
65316;BMP280;51920;53.952;10.292;2023-03-25T10:53:47;99383.59;;;10.61
65316;BMP280;51920;53.952;10.292;2023-03-25T10:56:17;99386.22;;;10.91
65316;BMP280;51920;53.952;10.292;2023-03-25T10:58:48;99406.84;;;11.05
65316;BMP280;51920;53.952;10.292;2023-03-25T11:01:18;99404.22;;;11.25
65316;BMP280;51920;53.952;10.292;2023-03-25T11:03:49;99406.66;;;11.39
65316;BMP280;51920;53.952;10.292;2023-03-25T11:06:23;99413.19;;;11.42
65316;BMP280;51920;53.952;10.292;2023-03-25T11:09:25;99401.03;;;11.50
65316;BMP280;51920;53.952;10.292;2023-03-25T11:11:53;99400.88;;;11.77
65316;BMP280;51920;53.952;10.292;2023-03-25T11:14:22;99393.47;;;11.98
65316;BMP280;51920;53.952;10.292;2023-03-25T11:17:00;99390.69;;;12.01
65316;BMP280;51920;53.952;10.292;2023-03-25T11:19:40;99391.13;;;12.33
65316;BMP280;51920;53.952;10.292;2023-03-25T11:22:14;99388.13;;;12.63
65316;BMP280;51920;53.952;10.292;2023-03-25T11:24:44;99387.16;;;12.21
65316;BMP280;51920;53.952;10.292;2023-03-25T11:27:25;99381.38;;;12.19
65316;BMP280;51920;53.952;10.292;2023-03-25T11:30:06;99384.09;;;11.82
65316;BMP280;51920;53.952;10.292;2023-03-25T11:32:39;99383.31;;;12.02
65316;BMP280;51920;53.952;10.292;2023-03-25T11:35:22;99394.38;;;11.91
65316;BMP280;51920;53.952;10.292;2023-03-25T11:37:55;99391.19;;;11.96
65316;BMP280;51920;53.952;10.292;2023-03-25T11:40:23;99400.53;;;11.75
65316;BMP280;51920;53.952;10.292;2023-03-25T11:42:53;99399.25;;;11.60
65316;BMP280;51920;53.952;10.292;2023-03-25T11:45:26;99403.06;;;11.03
65316;BMP280;51920;53.952;10.292;2023-03-25T11:48:00;99411.88;;;10.83
65316;BMP280;51920;53.952;10.292;2023-03-25T11:50:28;99423.66;;;10.46
65316;BMP280;51920;53.952;10.292;2023-03-25T11:52:57;99441.94;;;10.07
65316;BMP280;51920;53.952;10.292;2023-03-25T11:55:27;99429.78;;;9.54
65316;BMP280;51920;53.952;10.292;2023-03-25T11:57:56;99438.16;;;9.25
65316;BMP280;51920;53.952;10.292;2023-03-25T12:00:26;99447.28;;;9.42
65316;BMP280;51920;53.952;10.292;2023-03-25T12:03:26;99452.25;;;9.44
65316;BMP280;51920;53.952;10.292;2023-03-25T12:06:12;99451.66;;;9.25
65316;BMP280;51920;53.952;10.292;2023-03-25T12:08:55;99439.16;;;8.97
65316;BMP280;51920;53.952;10.292;2023-03-25T12:19:34;99423.72;;;8.98
65316;BMP280;51920;53.952;10.292;2023-03-25T12:33:03;99416.53;;;9.63
65316;BMP280;51920;53.952;10.292;2023-03-25T12:53:20;99409.78;;;9.48
65316;BMP280;51920;53.952;10.292;2023-03-25T13:01:11;99405.00;;;9.59
65316;BMP280;51920;53.952;10.292;2023-03-25T13:09:35;99406.91;;;9.62
65316;BMP280;51920;53.952;10.292;2023-03-25T13:12:10;99405.06;;;9.56
65316;BMP280;51920;53.952;10.292;2023-03-25T13:17:39;99398.84;;;9.59
65316;BMP280;51920;53.952;10.292;2023-03-25T13:20:08;99409.97;;;9.64
65316;BMP280;51920;53.952;10.292;2023-03-25T13:22:40;99404.19;;;9.66
65316;BMP280;51920;53.952;10.292;2023-03-25T13:27:57;99407.88;;;9.79
65316;BMP280;51920;53.952;10.292;2023-03-25T13:30:30;99408.75;;;9.72
65316;BMP280;51920;53.952;10.292;2023-03-25T13:33:35;99411.91;;;9.67
65316;BMP280;51920;53.952;10.292;2023-03-25T13:36:27;99412.03;;;9.53
65316;BMP280;51920;53.952;10.292;2023-03-25T13:38:56;99429.19;;;9.36
65316;BMP280;51920;53.952;10.292;2023-03-25T13:41:40;99443.19;;;9.23
65316;BMP280;51920;53.952;10.292;2023-03-25T13:44:14;99424.66;;;9.25
65316;BMP280;51920;53.952;10.292;2023-03-25T13:46:46;99442.47;;;9.19
65316;BMP280;51920;53.952;10.292;2023-03-25T13:49:30;99447.19;;;9.04
65316;BMP280;51920;53.952;10.292;2023-03-25T13:51:59;99442.63;;;8.98
65316;BMP280;51920;53.952;10.292;2023-03-25T13:54:50;99444.56;;;8.94
65316;BMP280;51920;53.952;10.292;2023-03-25T13:57:54;99438.09;;;8.84
65316;BMP280;51920;53.952;10.292;2023-03-25T14:06:34;99426.38;;;8.42
65316;BMP280;51920;53.952;10.292;2023-03-25T14:12:06;99434.72;;;8.69
65316;BMP280;51920;53.952;10.292;2023-03-25T14:14:40;99421.94;;;8.73
65316;BMP280;51920;53.952;10.292;2023-03-25T14:17:10;99414.25;;;8.75
65316;BMP280;51920;53.952;10.292;2023-03-25T14:19:41;99416.53;;;8.80
65316;BMP280;51920;53.952;10.292;2023-03-25T14:22:21;99407.22;;;8.85
65316;BMP280;51920;53.952;10.292;2023-03-25T14:24:49;99402.22;;;8.83
65316;BMP280;51920;53.952;10.292;2023-03-25T14:29:46;99411.13;;;8.80
65316;BMP280;51920;53.952;10.292;2023-03-25T14:34:46;99406.41;;;8.92
65316;BMP280;51920;53.952;10.292;2023-03-25T14:39:54;99403.34;;;8.89
65316;BMP280;51920;53.952;10.292;2023-03-25T14:42:29;99401.88;;;8.81
65316;BMP280;51920;53.952;10.292;2023-03-25T14:47:57;99393.31;;;8.86
65316;BMP280;51920;53.952;10.292;2023-03-25T14:52:54;99381.97;;;9.06
65316;BMP280;51920;53.952;10.292;2023-03-25T14:55:43;99389.97;;;9.20
65316;BMP280;51920;53.952;10.292;2023-03-25T14:58:21;99390.09;;;9.44
65316;BMP280;51920;53.952;10.292;2023-03-25T15:00:53;99394.91;;;9.63
65316;BMP280;51920;53.952;10.292;2023-03-25T15:03:21;99388.78;;;9.59
65316;BMP280;51920;53.952;10.292;2023-03-25T15:05:55;99384.19;;;9.56
65316;BMP280;51920;53.952;10.292;2023-03-25T15:08:53;99389.03;;;9.38
65316;BMP280;51920;53.952;10.292;2023-03-25T15:11:32;99390.22;;;9.33
65316;BMP280;51920;53.952;10.292;2023-03-25T15:14:05;99394.06;;;9.36
65316;BMP280;51920;53.952;10.292;2023-03-25T15:19:10;99384.41;;;9.35
65316;BMP280;51920;53.952;10.292;2023-03-25T15:24:33;99391.94;;;9.16
65316;BMP280;51920;53.952;10.292;2023-03-25T15:27:15;99382.66;;;9.14
65316;BMP280;51920;53.952;10.292;2023-03-25T15:35:59;99384.56;;;9.20
65316;BMP280;51920;53.952;10.292;2023-03-25T15:41:54;99398.53;;;9.11
65316;BMP280;51920;53.952;10.292;2023-03-25T15:52:37;99378.97;;;8.97
65316;BMP280;51920;53.952;10.292;2023-03-25T15:55:16;99383.63;;;8.93
65316;BMP280;51920;53.952;10.292;2023-03-25T15:57:53;99367.88;;;8.87
65316;BMP280;51920;53.952;10.292;2023-03-25T16:00:37;99358.63;;;8.85
65316;BMP280;51920;53.952;10.292;2023-03-25T16:03:18;99353.66;;;8.80
65316;BMP280;51920;53.952;10.292;2023-03-25T16:05:49;99345.16;;;8.81
65316;BMP280;51920;53.952;10.292;2023-03-25T16:08:41;99344.09;;;8.72
65316;BMP280;51920;53.952;10.292;2023-03-25T16:13:44;99352.25;;;8.64
65316;BMP280;51920;53.952;10.292;2023-03-25T16:16:15;99355.69;;;8.68
65316;BMP280;51920;53.952;10.292;2023-03-25T16:18:43;99351.41;;;8.71
65316;BMP280;51920;53.952;10.292;2023-03-25T16:21:11;99358.78;;;8.63
65316;BMP280;51920;53.952;10.292;2023-03-25T16:23:38;99351.81;;;8.66
65316;BMP280;51920;53.952;10.292;2023-03-25T16:26:05;99355.69;;;8.65
65316;BMP280;51920;53.952;10.292;2023-03-25T16:28:38;99359.59;;;8.57
65316;BMP280;51920;53.952;10.292;2023-03-25T16:31:30;99366.19;;;8.56
65316;BMP280;51920;53.952;10.292;2023-03-25T16:34:12;99368.16;;;8.48
65316;BMP280;51920;53.952;10.292;2023-03-25T16:36:42;99359.69;;;8.42
65316;BMP280;51920;53.952;10.292;2023-03-25T16:39:12;99359.72;;;8.39
65316;BMP280;51920;53.952;10.292;2023-03-25T16:41:47;99362.06;;;8.33
65316;BMP280;51920;53.952;10.292;2023-03-25T16:44:17;99362.84;;;8.34
65316;BMP280;51920;53.952;10.292;2023-03-25T16:46:46;99356.72;;;8.26
65316;BMP280;51920;53.952;10.292;2023-03-25T16:49:19;99347.47;;;8.27
65316;BMP280;51920;53.952;10.292;2023-03-25T16:51:49;99342.06;;;8.27
65316;BMP280;51920;53.952;10.292;2023-03-25T16:54:25;99342.47;;;8.29
65316;BMP280;51920;53.952;10.292;2023-03-25T16:56:54;99342.06;;;8.23
65316;BMP280;51920;53.952;10.292;2023-03-25T16:59:31;99345.19;;;8.22
65316;BMP280;51920;53.952;10.292;2023-03-25T17:01:59;99357.53;;;8.16
65316;BMP280;51920;53.952;10.292;2023-03-25T17:04:37;99362.59;;;8.06
65316;BMP280;51920;53.952;10.292;2023-03-25T17:07:11;99362.94;;;8.12